Time;durP1;ratioP1;P1;durP2;ratioP2;P2;SDS_P1;SDS_P2;PMS_P1;PMS_P2;Temp;Humidity;BMP_temperature;BMP_pressure;BME280_temperature;BME280_humidity;BME280_pressure;Samples;Min_cycle;Max_cycle;Signal;HPM_P1;HPM_P2
2023/03/20 00:02:18;;;;;;;11.27;6.70;;;;;;;6.78;100.00;101795.69;4983845;28;20409;-78
2023/03/20 00:04:45;;;;;;;14.40;7.65;;;;;;;6.79;100.00;101803.59;4988836;28;20317;-78
2023/03/20 00:07:12;;;;;;;10.38;6.38;;;;;;;6.81;100.00;101809.78;4986887;28;20492;-79
2023/03/20 00:09:41;;;;;;;9.60;6.55;;;;;;;6.82;100.00;101819.44;4985333;28;20503;-79
2023/03/20 00:12:24;;;;;;;11.32;6.57;;;;;;;6.84;100.00;101827.31;4935464;28;20059;-79
2023/03/20 00:14:51;;;;;;;10.18;6.55;;;;;;;6.83;100.00;101829.06;4987102;28;20050;-77
2023/03/20 00:17:19;;;;;;;14.25;6.70;;;;;;;6.85;100.00;101831.72;4966817;28;20054;-77
2023/03/20 00:19:47;;;;;;;12.38;6.63;;;;;;;6.85;100.00;101842.22;4975320;28;20054;-77
2023/03/20 00:22:15;;;;;;;12.25;6.65;;;;;;;6.87;100.00;101840.53;5001053;28;20051;-77
2023/03/20 00:24:43;;;;;;;10.65;7.05;;;;;;;6.85;100.00;101843.94;4974763;28;20042;-77
2023/03/20 00:27:16;;;;;;;11.70;6.25;;;;;;;6.82;100.00;101831.63;4914311;28;20061;-77
2023/03/20 00:29:43;;;;;;;9.10;5.65;;;;;;;6.81;100.00;101829.84;4986510;28;20069;-77
2023/03/20 00:32:12;;;;;;;9.98;5.57;;;;;;;6.80;100.00;101823.69;4979025;28;20077;-77
2023/03/20 00:34:40;;;;;;;10.63;5.72;;;;;;;6.80;100.00;101820.19;4961421;28;20046;-77
2023/03/20 00:37:10;;;;;;;9.48;5.65;;;;;;;6.79;100.00;101837.66;5002915;28;20050;-77
2023/03/20 00:39:38;;;;;;;9.88;6.18;;;;;;;6.80;100.00;101839.41;4984224;28;20063;-77
2023/03/20 00:42:12;;;;;;;13.68;6.00;;;;;;;6.81;100.00;101846.47;4957516;28;20061;-79
2023/03/20 00:44:48;;;;;;;9.82;6.43;;;;;;;6.83;100.00;101849.13;4985241;28;20049;-77
2023/03/20 00:47:22;;;;;;;10.55;6.75;;;;;;;6.85;100.00;101854.44;4991905;28;20058;-78
2023/03/20 00:49:51;;;;;;;9.32;6.65;;;;;;;6.86;100.00;101851.84;4977262;28;20405;-79
2023/03/20 00:52:19;;;;;;;9.73;6.30;;;;;;;6.87;100.00;101848.41;4987885;28;20056;-79
2023/03/20 00:54:47;;;;;;;10.77;6.80;;;;;;;6.88;100.00;101855.44;4991876;28;20492;-79
2023/03/20 00:57:17;;;;;;;11.25;6.05;;;;;;;6.88;100.00;101860.69;4939069;28;20150;-79
2023/03/20 01:00:00;;;;;;;9.07;5.85;;;;;;;6.85;100.00;101852.69;4991090;28;20046;-79
2023/03/20 01:02:29;;;;;;;11.20;6.28;;;;;;;6.85;100.00;101851.81;4977239;28;20504;-79
2023/03/20 01:04:59;;;;;;;8.82;5.82;;;;;;;6.83;100.00;101855.25;5002153;28;20066;-79
2023/03/20 01:07:28;;;;;;;9.20;6.30;;;;;;;6.81;100.00;101859.56;5002003;28;20046;-77
2023/03/20 01:09:55;;;;;;;11.05;5.68;;;;;;;6.81;100.00;101858.66;4979468;28;20054;-77
2023/03/20 01:12:23;;;;;;;8.82;5.43;;;;;;;6.80;100.00;101864.72;4914066;28;20069;-77
2023/03/20 01:14:55;;;;;;;7.93;5.80;;;;;;;6.78;100.00;101863.78;4994598;28;20051;-77
2023/03/20 01:17:25;;;;;;;7.70;5.60;;;;;;;6.79;100.00;101860.34;5005183;28;20081;-77
2023/03/20 01:19:52;;;;;;;11.35;5.88;;;;;;;6.79;100.00;101861.22;4991850;28;20061;-77
2023/03/20 01:22:19;;;;;;;11.02;5.97;;;;;;;6.79;100.00;101858.63;4978821;28;20586;-77
2023/03/20 01:24:47;;;;;;;10.25;5.85;;;;;;;6.78;100.00;101863.78;4989899;28;20072;-78
2023/03/20 01:27:17;;;;;;;9.95;5.93;;;;;;;6.73;100.00;101861.03;4943363;28;20042;-77
2023/03/20 01:29:46;;;;;;;8.05;6.05;;;;;;;6.73;100.00;101865.34;4966095;28;20046;-78
2023/03/20 01:32:18;;;;;;;9.27;5.90;;;;;;;6.71;100.00;101862.69;4993181;28;20055;-78
2023/03/20 01:34:51;;;;;;;5.28;4.75;;;;;;;6.71;100.00;101859.16;5005233;28;20412;-78
2023/03/20 01:37:25;;;;;;;5.40;4.90;;;;;;;6.67;100.00;101845.06;4965973;28;20246;-77
2023/03/20 01:39:54;;;;;;;10.88;5.30;;;;;;;6.66;100.00;101837.19;4997012;28;20457;-78
2023/03/20 01:42:22;;;;;;;8.02;5.13;;;;;;;6.63;100.00;101835.34;4981103;28;20157;-77
2023/03/20 01:44:50;;;;;;;9.23;5.45;;;;;;;6.63;100.00;101830.09;4932997;28;20051;-78
2023/03/20 01:47:24;;;;;;;8.10;5.10;;;;;;;6.62;100.00;101829.22;4985385;28;20058;-77
2023/03/20 01:50:21;;;;;;;10.63;5.82;;;;;;;6.63;100.00;101817.91;4984378;28;20045;-77
2023/03/20 01:53:15;;;;;;;9.35;5.15;;;;;;;6.63;100.00;101820.53;4955053;28;20046;-77
2023/03/20 01:56:13;;;;;;;11.35;5.05;;;;;;;6.60;100.00;101828.25;4997722;28;20050;-77
2023/03/20 01:58:52;;;;;;;8.02;5.25;;;;;;;6.59;100.00;101826.47;4987997;28;20058;-77
2023/03/20 02:01:20;;;;;;;8.43;5.60;;;;;;;6.60;100.00;101823.03;4957360;28;20080;-77
2023/03/20 02:03:49;;;;;;;8.48;5.00;;;;;;;6.61;100.00;101824.78;4986393;28;20046;-78
2023/03/20 02:06:23;;;;;;;8.82;5.10;;;;;;;6.60;100.00;101812.56;4980035;28;20062;-78
2023/03/20 02:09:03;;;;;;;5.73;4.83;;;;;;;6.61;100.00;101811.69;4988151;28;20409;-77
2023/03/20 02:11:39;;;;;;;8.73;4.80;;;;;;;6.61;100.00;101803.84;4965091;28;20660;-78
2023/03/20 02:14:07;;;;;;;9.23;4.93;;;;;;;6.62;100.00;101807.38;4991731;28;20409;-77
2023/03/20 02:16:43;;;;;;;9.70;4.95;;;;;;;6.63;100.00;101811.75;4944512;28;20050;-79
2023/03/20 02:19:50;;;;;;;9.95;5.10;;;;;;;6.63;100.00;101804.81;4985133;28;20053;-78
2023/03/20 02:22:40;;;;;;;8.75;4.90;;;;;;;6.63;100.00;101796.97;5022167;28;20050;-77
2023/03/20 02:25:30;;;;;;;10.02;5.13;;;;;;;6.61;100.00;101802.97;4984631;28;20061;-78
2023/03/20 02:28:15;;;;;;;10.65;4.50;;;;;;;6.61;100.00;101797.72;5015241;28;20060;-78
2023/03/20 02:31:09;;;;;;;10.27;5.10;;;;;;;6.58;100.00;101781.91;4958165;28;20047;-78
2023/03/20 02:34:21;;;;;;;10.35;5.25;;;;;;;6.61;100.00;101785.50;4971185;28;20054;-78
2023/03/20 02:37:00;;;;;;;8.98;5.18;;;;;;;6.63;100.00;101785.56;5000346;28;20062;-78
2023/03/20 02:39:37;;;;;;;21.15;6.72;;;;;;;6.61;100.00;101777.66;4978028;28;20439;-77
2023/03/20 02:42:42;;;;;;;14.43;5.60;;;;;;;6.61;100.00;101771.53;4973327;28;20059;-78
2023/03/20 02:45:28;;;;;;;14.25;6.20;;;;;;;6.62;100.00;101776.81;4989924;28;20057;-78
2023/03/20 02:48:36;;;;;;;8.07;6.38;;;;;;;6.66;100.00;101766.47;4964453;28;20051;-77
2023/03/20 02:51:19;;;;;;;10.63;6.80;;;;;;;6.67;100.00;101763.00;5008743;28;20420;-77
2023/03/20 02:54:05;;;;;;;13.32;6.70;;;;;;;6.68;100.00;101759.56;5008853;28;20057;-78
2023/03/20 02:56:37;;;;;;;13.60;7.22;;;;;;;6.69;100.00;101763.94;4982636;28;20073;-77
2023/03/20 02:59:33;;;;;;;15.50;6.90;;;;;;;6.73;100.00;101757.94;4992263;28;20051;-77
2023/03/20 03:02:25;;;;;;;12.40;6.75;;;;;;;6.74;100.00;101755.38;5011797;28;20050;-78
2023/03/20 03:05:00;;;;;;;13.25;6.28;;;;;;;6.76;100.00;101755.44;4981249;28;20034;-78
2023/03/20 03:07:34;;;;;;;14.60;6.35;;;;;;;6.75;100.00;101748.44;4965602;28;20043;-78
2023/03/20 03:10:26;;;;;;;13.02;7.30;;;;;;;6.77;100.00;101749.38;4977051;28;20061;-78
2023/03/20 03:12:57;;;;;;;15.60;8.05;;;;;;;6.79;100.00;101745.97;4987267;28;20065;-78
2023/03/20 03:15:38;;;;;;;17.02;7.50;;;;;;;6.80;100.00;101732.00;4976919;28;20047;-78
2023/03/20 03:18:13;;;;;;;16.58;7.20;;;;;;;6.80;100.00;101737.25;4977480;28;20043;-78
2023/03/20 03:20:44;;;;;;;10.60;6.82;;;;;;;6.80;100.00;101733.75;4958063;28;21107;-78
2023/03/20 03:23:22;;;;;;;14.18;7.68;;;;;;;6.79;100.00;101732.88;4987656;28;20054;-77
2023/03/20 03:25:50;;;;;;;12.35;6.68;;;;;;;6.78;100.00;101733.69;4992866;28;20050;-78
2023/03/20 03:28:37;;;;;;;18.08;8.13;;;;;;;6.79;100.00;101735.47;4946367;28;20047;-78
2023/03/20 03:31:08;;;;;;;13.13;7.13;;;;;;;6.81;100.00;101722.44;4996303;28;20051;-78
2023/03/20 03:33:38;;;;;;;;;;;;;;;6.81;100.00;101730.31;5000551;28;20065;-78
2023/03/20 03:36:33;;;;;;;14.10;7.47;;;;;;;6.80;100.00;101718.03;4948911;28;19945;-78
2023/03/20 03:39:10;;;;;;;15.27;8.07;;;;;;;6.79;100.00;101719.75;4970572;28;20055;-77
2023/03/20 03:41:45;;;;;;;17.25;6.72;;;;;;;6.80;100.00;101718.91;5018255;28;20757;-78
2023/03/20 03:44:29;;;;;;;16.23;8.15;;;;;;;6.79;100.00;101714.53;4979529;28;20113;-77
2023/03/20 03:47:23;;;;;;;24.80;8.98;;;;;;;6.80;100.00;101723.25;4980146;28;20074;-77
2023/03/20 03:49:56;;;;;;;21.05;9.20;;;;;;;6.78;100.00;101717.97;4947882;28;20053;-78
2023/03/20 03:52:27;;;;;;;18.77;8.68;;;;;;;6.80;100.00;101715.41;4983307;28;20054;-78
2023/03/20 03:54:58;;;;;;;15.35;8.00;;;;;;;6.78;100.00;101715.34;4990999;28;20053;-77
2023/03/20 03:57:52;;;;;;;14.75;8.57;;;;;;;6.78;100.00;101717.97;4974873;28;20051;-78
2023/03/20 04:00:22;;;;;;;19.30;8.30;;;;;;;6.80;100.00;101708.44;4994817;28;20505;-78
2023/03/20 04:02:53;;;;;;;16.33;7.70;;;;;;;6.80;100.00;101710.16;5017411;28;20050;-77
2023/03/20 04:05:23;;;;;;;19.73;8.35;;;;;;;6.81;100.00;101704.09;4954635;28;21861;-77
2023/03/20 04:07:56;;;;;;;23.23;9.83;;;;;;;6.81;100.00;101704.09;4983989;28;20047;-78
2023/03/20 04:10:24;;;;;;;17.20;8.70;;;;;;;6.81;100.00;101694.50;5005554;28;20492;-78
2023/03/20 04:12:51;;;;;;;14.65;8.63;;;;;;;6.82;100.00;101693.69;4984959;28;20054;-78
2023/03/20 04:15:20;;;;;;;18.67;9.52;;;;;;;6.84;100.00;101691.06;4945218;28;20051;-77
2023/03/20 04:17:47;;;;;;;22.52;9.80;;;;;;;6.86;100.00;101686.78;4958068;28;20046;-77
2023/03/20 04:20:16;;;;;;;27.70;9.38;;;;;;;6.87;100.00;101691.19;4928109;28;20058;-78
2023/03/20 04:22:45;;;;;;;14.85;9.00;;;;;;;6.87;100.00;101700.78;4969420;28;20053;-78
2023/03/20 04:25:18;;;;;;;22.33;10.15;;;;;;;6.88;100.00;101692.06;4973268;28;20051;-78
2023/03/20 04:27:46;;;;;;;16.42;9.90;;;;;;;6.87;100.00;101687.69;4991436;28;20047;-78
2023/03/20 04:30:24;;;;;;;18.45;9.43;;;;;;;6.87;100.00;101688.56;4984198;28;20505;-78
2023/03/20 04:33:11;;;;;;;14.18;9.30;;;;;;;6.87;100.00;101691.19;5007176;28;20066;-77
2023/03/20 04:35:59;;;;;;;17.75;11.00;;;;;;;6.87;100.00;101683.34;4945824;28;20070;-77
2023/03/20 04:38:26;;;;;;;16.92;9.38;;;;;;;6.87;100.00;101683.34;4968725;28;20053;-77
2023/03/20 04:40:54;;;;;;;15.18;9.05;;;;;;;6.88;100.00;101676.34;5003492;28;20054;-77
2023/03/20 04:43:23;;;;;;;20.48;10.93;;;;;;;6.89;100.00;101686.00;4993906;28;20055;-77
2023/03/20 04:45:51;;;;;;;19.13;10.25;;;;;;;6.89;100.00;101688.63;4942175;28;20069;-77
2023/03/20 04:48:18;;;;;;;17.40;10.63;;;;;;;6.90;100.00;101683.44;4963952;28;20063;-78
2023/03/20 04:50:47;;;;;;;21.50;9.18;;;;;;;6.91;100.00;101687.81;4966614;28;20042;-77
2023/03/20 04:53:17;;;;;;;18.50;9.95;;;;;;;6.91;100.00;101693.06;4928760;28;20401;-77
2023/03/20 04:55:49;;;;;;;19.88;9.05;;;;;;;6.91;100.00;101692.19;4977900;28;20062;-77
2023/03/20 04:58:17;;;;;;;16.75;9.07;;;;;;;6.91;100.00;101687.81;5005590;28;20077;-78
2023/03/20 05:00:45;;;;;;;18.27;9.93;;;;;;;6.92;100.00;101680.84;4944545;28;20054;-77
2023/03/20 05:03:13;;;;;;;18.33;9.07;;;;;;;6.92;100.00;101693.94;4956035;28;20047;-77
2023/03/20 05:05:40;;;;;;;13.23;8.57;;;;;;;6.93;100.00;101680.91;4990760;28;20053;-77
2023/03/20 05:08:07;;;;;;;19.00;8.52;;;;;;;6.94;100.00;101687.03;4928730;28;20054;-77
2023/03/20 05:10:37;;;;;;;14.05;9.07;;;;;;;6.94;100.00;101689.66;4962904;28;20061;-77
2023/03/20 05:13:33;;;;;;;17.35;8.38;;;;;;;6.93;100.00;101701.84;4974764;28;20077;-78
2023/03/20 05:16:33;;;;;;;13.90;7.65;;;;;;;6.93;100.00;101691.38;4993828;28;20059;-78
2023/03/20 05:19:11;;;;;;;16.52;9.02;;;;;;;6.93;100.00;101694.00;4978918;28;20061;-78
2023/03/20 05:21:50;;;;;;;23.92;10.48;;;;;;;6.93;100.00;101696.63;4980032;28;20392;-77
2023/03/20 05:24:46;;;;;;;13.82;8.20;;;;;;;6.93;100.00;101701.84;5008218;28;20043;-78
2023/03/20 05:27:29;;;;;;;15.77;8.13;;;;;;;6.93;100.00;101700.97;4992969;28;20524;-78
2023/03/20 05:30:03;;;;;;;15.05;8.68;;;;;;;6.93;100.00;101698.34;4996384;28;20051;-78
2023/03/20 05:33:08;;;;;;;13.35;8.25;;;;;;;6.93;100.00;101700.97;4985330;28;20061;-78
2023/03/20 05:35:57;;;;;;;11.63;8.02;;;;;;;6.93;100.00;101712.34;4970522;28;20050;-78
2023/03/20 05:38:43;;;;;;;18.95;8.88;;;;;;;6.92;100.00;101713.19;4961313;28;20073;-78
2023/03/20 05:41:30;;;;;;;21.00;8.73;;;;;;;6.93;100.00;101711.47;4978335;28;20457;-78
2023/03/20 05:44:24;;;;;;;11.30;8.38;;;;;;;6.91;100.00;101714.03;5007526;28;20273;-78
2023/03/20 05:47:17;;;;;;;16.98;8.40;;;;;;;6.92;100.00;101718.44;4978778;28;20058;-78
2023/03/20 05:50:23;;;;;;;17.98;8.77;;;;;;;6.91;100.00;101721.88;5017239;28;20045;-78
2023/03/20 05:52:59;;;;;;;18.20;9.00;;;;;;;6.92;100.00;101721.06;4997721;28;20049;-78
2023/03/20 05:55:53;;;;;;;13.20;8.32;;;;;;;6.93;100.00;101716.69;4945336;28;20069;-78
2023/03/20 05:58:46;;;;;;;11.73;7.32;;;;;;;6.93;100.00;101709.72;4954806;28;20065;-77
2023/03/20 06:01:46;;;;;;;18.00;8.50;;;;;;;6.95;100.00;101708.03;4979259;28;20054;-77
2023/03/20 06:04:22;;;;;;;12.05;8.25;;;;;;;6.96;100.00;101706.31;4973459;28;20058;-77
2023/03/20 06:07:11;;;;;;;14.05;8.32;;;;;;;6.95;100.00;101721.13;4980379;28;20810;-77
2023/03/20 06:09:41;;;;;;;17.50;8.88;;;;;;;6.95;100.00;101715.91;5004056;28;20067;-76
2023/03/20 06:12:11;;;;;;;11.82;7.50;;;;;;;6.96;100.00;101720.31;4931207;28;20544;-79
2023/03/20 06:14:40;;;;;;;10.75;7.53;;;;;;;6.97;100.00;101710.72;4954827;28;20054;-76
2023/03/20 06:17:08;;;;;;;16.98;8.50;;;;;;;6.97;100.00;101711.59;4980829;28;20050;-77
2023/03/20 06:19:36;;;;;;;15.30;8.30;;;;;;;6.99;100.00;101723.03;5003444;28;20043;-76
2023/03/20 06:22:05;;;;;;;13.95;8.88;;;;;;;7.01;100.00;101709.97;4973379;28;20047;-78
2023/03/20 06:24:35;;;;;;;12.37;8.03;;;;;;;7.02;100.00;101717.88;4973114;28;20500;-78
2023/03/20 06:27:03;;;;;;;13.90;7.47;;;;;;;7.03;100.00;101719.66;4911010;28;20317;-77
2023/03/20 06:29:31;;;;;;;17.70;7.72;;;;;;;7.05;100.00;101721.44;4987380;28;20049;-76
2023/03/20 06:32:11;;;;;;;16.08;8.05;;;;;;;7.05;100.00;101724.06;4996154;28;20053;-78
2023/03/20 06:34:40;;;;;;;14.27;8.05;;;;;;;7.05;100.00;101719.72;4980136;28;20043;-76
2023/03/20 06:37:07;;;;;;;10.82;7.55;;;;;;;7.05;100.00;101722.34;4969156;28;20762;-76
2023/03/20 06:39:35;;;;;;;13.88;7.68;;;;;;;7.06;100.00;101724.09;5007450;28;20430;-76
2023/03/20 06:42:05;;;;;;;;;;;;;;;7.07;100.00;101719.75;4938813;28;21152;-76
2023/03/20 06:44:32;;;;;;;16.10;7.75;;;;;;;7.09;100.00;101718.06;4991839;28;19922;-78
2023/03/20 06:47:09;;;;;;;12.27;8.02;;;;;;;7.09;100.00;101712.81;4978521;28;21612;-77
2023/03/20 06:49:36;;;;;;;10.45;6.78;;;;;;;7.10;100.00;101719.84;4951932;28;20046;-78
2023/03/20 06:52:05;;;;;;;15.23;7.53;;;;;;;7.10;100.00;101723.34;4981397;28;20047;-78
2023/03/20 06:54:33;;;;;;;15.45;6.70;;;;;;;7.10;100.00;101725.09;4979981;28;20062;-78
2023/03/20 06:57:02;;;;;;;16.58;7.53;;;;;;;7.11;100.00;101724.28;4945955;28;21157;-78
2023/03/20 06:59:30;;;;;;;17.63;7.47;;;;;;;7.10;100.00;101731.22;4970228;28;20053;-78
2023/03/20 07:01:58;;;;;;;16.45;7.25;;;;;;;7.11;100.00;101732.13;4977780;28;20899;-77
2023/03/20 07:04:27;;;;;;;12.90;7.17;;;;;;;7.13;100.00;101735.69;4986810;28;20715;-77
2023/03/20 07:06:59;;;;;;;13.10;7.80;;;;;;;7.14;100.00;101743.56;4959666;28;20058;-78
2023/03/20 07:09:26;;;;;;;14.48;7.82;;;;;;;7.16;100.00;101751.50;4968406;28;20062;-78
2023/03/20 07:11:55;;;;;;;12.77;7.68;;;;;;;7.17;100.00;101745.44;4939060;28;20038;-78
2023/03/20 07:14:23;;;;;;;13.75;8.05;;;;;;;7.19;100.00;101752.47;4971181;28;20055;-79
2023/03/20 07:16:57;;;;;;;11.35;7.65;;;;;;;7.22;100.00;101749.06;4960059;28;20264;-79
2023/03/20 07:19:30;;;;;;;15.13;8.85;;;;;;;7.23;100.00;101748.22;5000899;28;20046;-79
2023/03/20 07:22:00;;;;;;;15.90;8.55;;;;;;;7.25;100.00;101750.91;4976105;28;20542;-79
2023/03/20 07:24:34;;;;;;;14.65;7.75;;;;;;;7.28;100.00;101757.13;4972286;28;20082;-77
2023/03/20 07:27:03;;;;;;;14.68;8.40;;;;;;;7.31;100.00;101761.56;4965204;28;20061;-77
2023/03/20 07:29:32;;;;;;;11.70;7.10;;;;;;;7.35;100.00;101753.88;4943335;28;20054;-77
2023/03/20 07:32:01;;;;;;;12.43;7.25;;;;;;;7.39;100.00;101755.75;4962982;28;20054;-77
2023/03/20 07:34:34;;;;;;;14.00;8.20;;;;;;;7.45;100.00;101756.75;4984363;28;20957;-77
2023/03/20 07:37:03;;;;;;;13.20;7.65;;;;;;;7.47;100.00;101752.47;4979677;28;20100;-77
2023/03/20 07:39:32;;;;;;;14.57;8.75;;;;;;;7.53;100.00;101757.88;4977760;28;20058;-77
2023/03/20 07:42:19;;;;;;;14.75;8.63;;;;;;;7.57;100.00;101750.13;4968151;28;20050;-77
2023/03/20 07:44:57;;;;;;;13.65;7.53;;;;;;;7.62;100.00;101763.41;4939585;28;20054;-77
2023/03/20 07:47:25;;;;;;;10.80;7.20;;;;;;;7.64;100.00;101777.47;4982279;28;20047;-78
2023/03/20 07:49:52;;;;;;;14.68;8.10;;;;;;;7.67;100.00;101768.78;4991797;28;20062;-77
2023/03/20 07:52:20;;;;;;;11.23;7.53;;;;;;;7.69;100.00;101774.97;4972928;28;20035;-77
2023/03/20 07:54:47;;;;;;;15.82;8.55;;;;;;;7.71;100.00;101774.19;4960405;28;20051;-79
2023/03/20 07:57:14;;;;;;;11.55;8.27;;;;;;;7.75;100.00;101775.13;4975344;28;20058;-77
2023/03/20 07:59:42;;;;;;;14.27;8.70;;;;;;;7.77;100.00;101770.84;4928188;28;20058;-78
2023/03/20 08:02:18;;;;;;;11.23;8.27;;;;;;;7.80;100.00;101787.56;4976022;28;20039;-78
2023/03/20 08:04:45;;;;;;;10.75;8.02;;;;;;;7.86;100.00;101783.34;4962873;28;20388;-77
2023/03/20 08:07:13;;;;;;;11.98;8.15;;;;;;;7.91;100.00;101773.88;4966557;28;20609;-78
2023/03/20 08:09:40;;;;;;;16.52;8.35;;;;;;;7.98;100.00;101760.09;4988257;28;20055;-78
2023/03/20 08:12:08;;;;;;;14.57;8.05;;;;;;;8.03;100.00;101763.69;4975360;28;20400;-78
2023/03/20 08:14:37;;;;;;;15.70;8.43;;;;;;;8.12;100.00;101761.34;4891945;28;21785;-77
2023/03/20 08:17:06;;;;;;;14.88;8.40;;;;;;;8.24;100.00;101754.66;4966232;28;20602;-77
2023/03/20 08:19:42;;;;;;;13.45;8.52;;;;;;;8.31;100.00;101752.22;4974202;28;20048;-77
2023/03/20 08:22:09;;;;;;;13.45;7.78;;;;;;;8.38;100.00;101753.28;4934356;28;20046;-77
2023/03/20 08:24:37;;;;;;;17.05;8.90;;;;;;;8.43;100.00;101753.44;4973250;28;20054;-77
2023/03/20 08:27:04;;;;;;;13.15;8.05;;;;;;;8.49;100.00;101751.88;4966066;28;20077;-78
2023/03/20 08:29:34;;;;;;;17.85;8.60;;;;;;;8.62;100.00;101747.84;4932652;28;22451;-77
2023/03/20 08:32:02;;;;;;;11.80;9.02;;;;;;;8.72;100.00;101743.69;4998359;28;20501;-78
2023/03/20 08:34:32;;;;;;;15.57;8.77;;;;;;;8.77;100.00;101739.41;4978547;28;20500;-78
2023/03/20 08:37:02;;;;;;;12.77;7.47;;;;;;;8.84;100.00;101743.09;4990437;28;20057;-78
2023/03/20 08:39:31;;;;;;;12.68;8.48;;;;;;;8.80;100.00;101750.03;4946592;28;20055;-78
2023/03/20 08:41:59;;;;;;;13.85;8.88;;;;;;;8.75;100.00;101749.91;4980295;28;20043;-78
2023/03/20 08:44:28;;;;;;;13.80;7.97;;;;;;;8.70;100.00;101746.28;4978368;28;20053;-77
2023/03/20 08:46:56;;;;;;;15.05;8.52;;;;;;;8.70;100.00;101756.78;4921662;28;20528;-78
2023/03/20 08:49:23;;;;;;;18.55;8.50;;;;;;;8.69;100.00;101755.00;4971303;28;20050;-77
2023/03/20 08:51:51;;;;;;;13.02;8.25;;;;;;;8.68;100.00;101755.00;5003127;28;20423;-78
2023/03/20 08:54:18;;;;;;;14.32;8.52;;;;;;;8.67;100.00;101758.44;5000229;28;20046;-78
2023/03/20 08:56:45;;;;;;;14.15;7.30;;;;;;;8.68;100.00;101752.34;4976810;28;20404;-78
2023/03/20 08:59:13;;;;;;;14.15;7.97;;;;;;;8.70;100.00;101750.66;4976689;28;20046;-78
2023/03/20 09:01:40;;;;;;;13.65;8.32;;;;;;;8.72;100.00;101747.22;4947404;28;20050;-77
2023/03/20 09:04:16;;;;;;;17.27;8.93;;;;;;;8.75;100.00;101743.75;4976494;28;20062;-77
2023/03/20 09:06:44;;;;;;;13.25;8.77;;;;;;;8.77;100.00;101748.22;4985526;28;20066;-77
2023/03/20 09:09:14;;;;;;;14.02;8.82;;;;;;;8.86;100.00;101742.28;4981770;28;20074;-76
2023/03/20 09:11:42;;;;;;;;;;;;;;;8.93;100.00;101738.97;4982397;28;20046;-77
2023/03/20 09:14:09;;;;;;;12.95;8.18;;;;;;;9.00;100.00;101737.38;4981116;28;19926;-77
2023/03/20 09:16:37;;;;;;;13.77;8.32;;;;;;;9.01;100.00;101738.25;4968120;28;20046;-77
2023/03/20 09:19:05;;;;;;;13.57;8.40;;;;;;;9.00;100.00;101733.84;4986913;28;20042;-79
2023/03/20 09:21:32;;;;;;;18.08;8.43;;;;;;;9.01;100.00;101733.00;4977007;28;20801;-76
2023/03/20 09:24:00;;;;;;;13.75;8.18;;;;;;;9.01;100.00;101735.63;4981362;28;20444;-77
2023/03/20 09:26:27;;;;;;;14.82;8.32;;;;;;;9.08;100.00;101737.56;4982817;28;20053;-77
2023/03/20 09:28:56;;;;;;;20.65;8.77;;;;;;;9.16;100.00;101731.59;4988907;28;20050;-77
2023/03/20 09:31:23;;;;;;;13.98;7.82;;;;;;;9.23;100.00;101727.38;4976595;28;20811;-77
2023/03/20 09:33:51;;;;;;;15.57;8.43;;;;;;;9.26;100.00;101726.56;4950742;28;20058;-77
2023/03/20 09:36:18;;;;;;;14.32;7.90;;;;;;;9.30;100.00;101728.41;4974010;28;20031;-77
2023/03/20 09:38:45;;;;;;;13.68;8.43;;;;;;;9.30;100.00;101720.50;4959745;28;20046;-77
2023/03/20 09:41:20;;;;;;;15.98;8.60;;;;;;;9.38;100.00;101720.72;4956027;28;20069;-78
2023/03/20 09:44:04;;;;;;;14.10;7.88;;;;;;;9.44;100.00;101720.84;4977574;28;20575;-78
2023/03/20 09:46:31;;;;;;;16.20;8.20;;;;;;;9.50;100.00;101720.97;4975376;28;20045;-78
2023/03/20 09:49:29;;;;;;;16.13;9.10;;;;;;;9.56;100.00;101727.25;4973619;28;20070;-78
2023/03/20 09:52:00;;;;;;;16.65;7.55;;;;;;;9.52;100.00;101725.38;4981043;28;20054;-78
2023/03/20 09:54:38;;;;;;;12.65;6.97;;;;;;;9.49;100.00;101724.44;5009900;28;20504;-78
2023/03/20 09:57:24;;;;;;;12.55;7.50;;;;;;;9.51;100.00;101733.28;4993588;28;20057;-78
2023/03/20 10:00:08;;;;;;;13.10;7.20;;;;;;;9.53;100.00;101728.94;4983040;28;20054;-78
2023/03/20 10:02:46;;;;;;;11.20;6.68;;;;;;;9.54;100.00;101733.31;5007517;28;20042;-78
2023/03/20 10:05:44;;;;;;;11.23;6.95;;;;;;;9.55;100.00;101730.72;4956401;28;20047;-78
2023/03/20 10:08:15;;;;;;;15.05;7.75;;;;;;;9.60;100.00;101724.66;4966596;28;20051;-78
2023/03/20 10:10:54;;;;;;;8.93;6.68;;;;;;;9.68;100.00;101736.28;4985686;28;20053;-77
2023/03/20 10:13:25;;;;;;;10.75;5.82;;;;;;;9.72;100.00;101727.56;4997442;28;20050;-79
2023/03/20 10:16:27;;;;;;;9.98;6.30;;;;;;;9.74;100.00;101724.09;4971483;28;20062;-79
2023/03/20 10:19:12;;;;;;;14.98;6.40;;;;;;;9.87;100.00;101727.88;4972387;28;20046;-79
2023/03/20 10:21:45;;;;;;;12.52;6.07;;;;;;;9.99;100.00;101729.00;4950455;28;21382;-77
2023/03/20 10:24:27;;;;;;;13.55;6.90;;;;;;;10.12;100.00;101720.47;4984537;28;20050;-78
2023/03/20 10:27:03;;;;;;;16.27;7.65;;;;;;;10.18;100.00;101717.06;4987543;28;20065;-78
2023/03/20 10:29:58;;;;;;;13.85;7.18;;;;;;;10.26;100.00;101710.16;4966690;28;20046;-78
2023/03/20 10:32:37;;;;;;;14.88;7.60;;;;;;;10.27;100.00;101712.84;5006114;28;20065;-77
2023/03/20 10:35:13;;;;;;;11.55;6.63;;;;;;;10.30;100.00;101719.91;4980701;28;20061;-78
2023/03/20 10:38:19;;;;;;;12.95;7.50;;;;;;;10.32;100.00;101721.75;4941144;28;20063;-78
2023/03/20 10:40:47;;;;;;;12.50;6.55;;;;;;;10.35;100.00;101726.19;5000886;28;20062;-79
2023/03/20 10:43:32;;;;;;;13.95;7.50;;;;;;;10.33;100.00;101726.16;4982669;28;20062;-78
2023/03/20 10:46:07;;;;;;;15.30;7.60;;;;;;;10.32;100.00;101731.38;4966357;28;20058;-77
2023/03/20 10:48:39;;;;;;;14.43;7.50;;;;;;;10.28;100.00;101729.53;4984572;28;20412;-77
2023/03/20 10:51:13;;;;;;;13.15;6.60;;;;;;;10.24;100.00;101725.94;4987872;28;20058;-77
2023/03/20 10:53:46;;;;;;;12.32;6.57;;;;;;;10.25;100.00;101724.22;4953751;28;20043;-77
2023/03/20 10:56:31;;;;;;;10.85;7.28;;;;;;;10.25;100.00;101727.72;5011705;28;20046;-77
2023/03/20 10:59:05;;;;;;;14.00;6.78;;;;;;;10.21;100.00;101732.91;4973957;28;20055;-78
2023/03/20 11:01:33;;;;;;;16.17;6.95;;;;;;;10.20;100.00;101731.13;4972510;28;20058;-78
2023/03/20 11:04:02;;;;;;;13.60;6.75;;;;;;;10.27;100.00;101725.13;5007066;28;20046;-77
2023/03/20 11:06:56;;;;;;;13.98;6.88;;;;;;;10.27;100.00;101727.78;4959074;28;20085;-78
2023/03/20 11:09:25;;;;;;;14.43;7.13;;;;;;;10.27;100.00;101714.59;4937013;28;20054;-77
2023/03/20 11:11:57;;;;;;;13.85;6.45;;;;;;;10.23;100.00;101725.94;4994371;28;20047;-78
2023/03/20 11:14:31;;;;;;;16.00;6.93;;;;;;;10.24;100.00;101725.06;4977920;28;20047;-77
2023/03/20 11:17:02;;;;;;;15.75;7.20;;;;;;;10.26;100.00;101725.97;5001438;28;20077;-77
2023/03/20 11:19:35;;;;;;;17.80;7.68;;;;;;;10.33;100.00;101720.00;4993918;28;20046;-77
2023/03/20 11:22:20;;;;;;;12.65;6.90;;;;;;;10.42;100.00;101724.56;4967314;28;20674;-77
2023/03/20 11:24:53;;;;;;;15.32;7.38;;;;;;;10.45;100.00;101714.06;4949408;28;20527;-77
2023/03/20 11:27:27;;;;;;;13.85;6.82;;;;;;;10.46;100.00;101718.47;4985237;28;20054;-77
2023/03/20 11:29:59;;;;;;;12.93;6.47;;;;;;;10.43;100.00;101719.28;4984768;28;20061;-78
2023/03/20 11:32:33;;;;;;;17.35;6.68;;;;;;;10.43;100.00;101714.03;4972368;28;20039;-78
2023/03/20 11:35:21;;;;;;;14.70;7.10;;;;;;;10.46;100.00;101705.31;4990296;28;20073;-82
2023/03/20 11:37:51;;;;;;;10.10;6.53;;;;;;;10.47;100.00;101704.44;4996798;28;20081;-76
2023/03/20 11:40:29;;;;;;;13.63;5.45;;;;;;;10.40;100.00;101710.47;4933348;28;20042;-77
2023/03/20 11:43:00;;;;;;;15.10;6.18;;;;;;;10.30;100.00;101712.00;4966994;28;20404;-76
2023/03/20 11:45:38;;;;;;;11.63;5.00;;;;;;;10.27;100.00;101706.69;4974751;28;20063;-77
2023/03/20 11:48:16;;;;;;;11.55;4.63;;;;;;;10.17;100.00;101704.72;4973991;28;20782;-77
2023/03/20 11:50:56;;;;;;;9.00;5.03;;;;;;;10.07;100.00;101709.81;4964694;28;20366;-77
2023/03/20 11:53:29;;;;;;;15.23;5.80;;;;;;;9.98;100.00;101708.75;4964675;28;20042;-77